Main page
METAR-TAF:

METAR-TAF

Airports :

Gran Canaria Airport

Gran Canaria, Spain

latitude: 27-56N, longitude: 015-23W, elevation: 23 m

Current weather observation

The report was made 32 minutes ago, at 14:00 UTC
Wind 29 kt from the North/Northeast
Temperature 25°C
Humidity 57%
Pressure 1016 hPa
Visibility 10 km or more
Few clouds at a height of 2500 ft

METAR: GCLP 221400Z 03029KT 9999 FEW025 25/16 Q1016 NOSIG

Time: 15:32 (14:32 UTC)

Forecast

The report was made 6 hours and 32 minutes ago, at 08:00 UTC
Forecast valid from 22 at 09 UTC to 23 at 09 UTC
Wind 26 kt from the North
Visibility 10 km or more
Few clouds at a height of 2500 ft
Temporary
from 22 at 09 UTC to 22 at 19 UTC
Wind 26 kt from the North with gusts up to 36 kt

TAF: GCLP 220800Z 2209/2309 01026KT 9999 FEW025 TX27/2214Z TN21/2305Z TEMPO 2209/2219 36026G36KT

Weather observations and forecasts of more than 4000 airports (METAR and TAF reports).

The available stations are represented by yellow and red dots on the map.

Hover mouse over dot to see the name of the station.

Then click to see weather observations and forecasts.

To change the map : click on the green buttons with a black cross to zoom in, on the green button with a dash to zoom out, or on the green arrows for adjacent maps.


METAR-TAF: